This is the latest recevied weather packets stored in our database for station/object OM8AGG-10. If no packets are shown the sender has not sent any weather packets the latest 10 day(s).
| Time | Temp. | Humidity | Pressure | Rain* | Wind** | Luminosity | Snow |
|---|---|---|---|---|---|---|---|
| 1788496100 | 10.56° C | 100% | 1020.4 hPa | - | - | - | - |
| 1788495200 | 10° C | 100% | 1020.3 hPa | - | - | - | - |
| 1788494300 | 10° C | 100% | 1020.3 hPa | - | - | - | - |
| 1788493400 | 10° C | 100% | 1020.5 hPa | - | - | - | - |
| 1788492500 | 10° C | 100% | 1020.5 hPa | - | - | - | - |
| 1788491599 | 10° C | 100% | 1020.4 hPa | - | - | - | - |
| 1788490699 | 10° C | 100% | 1020.4 hPa | - | - | - | - |
| 1788489799 | 10.56° C | 100% | 1020.4 hPa | - | - | - | - |
| 1788488899 | 10° C | 100% | 1020.5 hPa | - | - | - | - |
| 1788487999 | 10.56° C | 100% | 1020.2 hPa | - | - | - | - |
| 1788485298 | 10° C | 100% | 1020.7 hPa | - | - | - | - |
| 1788482598 | 11.11° C | 100% | 1020.5 hPa | - | - | - | - |
| 1788481698 | 11.11° C | 100% | 1020.6 hPa | - | - | - | - |
| 1788480798 | 11.11° C | 100% | 1020.6 hPa | - | - | - | - |
| 1788479898 | 11.11° C | 100% | 1020.6 hPa | - | - | - | - |
| 1788474497 | 11.11° C | 100% | 1020.5 hPa | - | - | - | - |
| 1788473597 | 11.67° C | 100% | 1020.5 hPa | - | - | - | - |
| 1788469996 | 12.22° C | 100% | 1020 hPa | - | - | - | - |
| 1788469096 | 12.22° C | 100% | 1020 hPa | - | - | - | - |
| 1788467296 | 12.78° C | 100% | 1020 hPa | - | - | - | - |
| 1788465495 | 13.89° C | 98% | 1020.2 hPa | - | - | - | - |
| 1788463695 | 15° C | 98% | 1020.2 hPa | - | - | - | - |
| 1788449292 | 22.78° C | 58% | 1019.1 hPa | - | - | - | - |
| 1788446592 | 23.33° C | 55% | 1019.3 hPa | - | - | - | - |
| 1788442091 | 22.78° C | 64% | 1019.8 hPa | - | - | - | - |
* Rain since midnight (hover to see other rain measurements)
** Current wind speed in m/s (hover to see current wind gust speed)